Terminal Aerodrome Forecast
Issued by NWS Bismarck, ND

Home | Current Version | Previous Version | Graphics & Text | Print | Product List | Glossary On
Versions: 1 2 3 4 5 6 7 8 9 10 11 12 13 14 15 16 17 18
000
FTUS43 KBIS 271734
TAFISN
TAF
KISN 271734Z 2718/2818 12015KT P6SM SCT100
     FM272200 10010KT P6SM VCTS BKN050CB OVC080
     FM280200 12012KT P6SM SHRA VCTS OVC040CB
     FM280700 25015G25KT P6SM -SHRA OVC025
     FM281500 24025G40KT P6SM SCT100=

USA.gov is the U.S. government's official web portal to all federal, state and local government web resources and services.